sensor_id;sensor_type;location;lat;lon;timestamp;P1;durP1;ratioP1;P2;durP2;ratioP2
40116;SDS011;25829;50.228;18.936;2024-02-04T00:00:52;8.57;;;4.43;;
40116;SDS011;25829;50.228;18.936;2024-02-04T00:03:52;7.50;;;5.00;;
40116;SDS011;25829;50.228;18.936;2024-02-04T00:06:53;9.57;;;5.60;;
40116;SDS011;25829;50.228;18.936;2024-02-04T00:09:54;13.27;;;7.33;;
40116;SDS011;25829;50.228;18.936;2024-02-04T00:12:55;15.00;;;7.30;;
40116;SDS011;25829;50.228;18.936;2024-02-04T00:15:56;16.00;;;8.37;;
40116;SDS011;25829;50.228;18.936;2024-02-04T00:18:58;14.60;;;8.17;;
40116;SDS011;25829;50.228;18.936;2024-02-04T00:21:59;14.47;;;8.17;;
40116;SDS011;25829;50.228;18.936;2024-02-04T00:25:00;15.37;;;8.57;;
40116;SDS011;25829;50.228;18.936;2024-02-04T00:28:10;10.20;;;7.17;;
40116;SDS011;25829;50.228;18.936;2024-02-04T00:31:12;12.73;;;6.73;;
40116;SDS011;25829;50.228;18.936;2024-02-04T00:34:12;10.63;;;6.90;;
40116;SDS011;25829;50.228;18.936;2024-02-04T00:37:13;10.37;;;5.80;;
40116;SDS011;25829;50.228;18.936;2024-02-04T00:40:14;8.80;;;5.20;;
40116;SDS011;25829;50.228;18.936;2024-02-04T00:43:15;9.07;;;5.70;;
40116;SDS011;25829;50.228;18.936;2024-02-04T00:46:15;9.40;;;6.10;;
40116;SDS011;25829;50.228;18.936;2024-02-04T00:49:16;9.47;;;5.73;;
40116;SDS011;25829;50.228;18.936;2024-02-04T00:52:17;8.30;;;5.80;;
40116;SDS011;25829;50.228;18.936;2024-02-04T00:55:18;8.67;;;6.07;;
40116;SDS011;25829;50.228;18.936;2024-02-04T00:58:19;8.60;;;5.70;;
40116;SDS011;25829;50.228;18.936;2024-02-04T01:01:20;9.20;;;5.70;;
40116;SDS011;25829;50.228;18.936;2024-02-04T01:04:20;10.40;;;6.47;;
40116;SDS011;25829;50.228;18.936;2024-02-04T01:07:23;11.00;;;6.10;;
40116;SDS011;25829;50.228;18.936;2024-02-04T01:10:24;10.43;;;6.20;;
40116;SDS011;25829;50.228;18.936;2024-02-04T01:13:24;8.80;;;6.20;;
40116;SDS011;25829;50.228;18.936;2024-02-04T01:16:25;8.97;;;5.63;;
40116;SDS011;25829;50.228;18.936;2024-02-04T01:19:26;8.10;;;5.83;;
40116;SDS011;25829;50.228;18.936;2024-02-04T01:22:27;9.07;;;5.20;;
40116;SDS011;25829;50.228;18.936;2024-02-04T01:25:28;7.80;;;4.90;;
40116;SDS011;25829;50.228;18.936;2024-02-04T01:28:29;10.30;;;4.87;;
40116;SDS011;25829;50.228;18.936;2024-02-04T01:31:29;9.87;;;4.67;;
40116;SDS011;25829;50.228;18.936;2024-02-04T01:34:32;5.33;;;3.70;;
40116;SDS011;25829;50.228;18.936;2024-02-04T01:37:33;8.73;;;3.80;;
40116;SDS011;25829;50.228;18.936;2024-02-04T01:40:34;3.90;;;3.00;;
40116;SDS011;25829;50.228;18.936;2024-02-04T01:43:34;6.30;;;4.03;;
40116;SDS011;25829;50.228;18.936;2024-02-04T01:46:35;5.17;;;3.07;;
40116;SDS011;25829;50.228;18.936;2024-02-04T01:49:37;3.33;;;2.60;;
40116;SDS011;25829;50.228;18.936;2024-02-04T01:52:38;3.53;;;2.83;;
40116;SDS011;25829;50.228;18.936;2024-02-04T01:55:40;4.20;;;2.40;;
40116;SDS011;25829;50.228;18.936;2024-02-04T01:58:42;4.40;;;2.70;;
40116;SDS011;25829;50.228;18.936;2024-02-04T02:01:44;4.13;;;2.53;;
40116;SDS011;25829;50.228;18.936;2024-02-04T02:04:45;4.70;;;2.77;;
40116;SDS011;25829;50.228;18.936;2024-02-04T02:07:47;3.17;;;2.50;;
40116;SDS011;25829;50.228;18.936;2024-02-04T02:10:51;3.70;;;2.70;;
40116;SDS011;25829;50.228;18.936;2024-02-04T02:14:00;2.70;;;2.30;;
40116;SDS011;25829;50.228;18.936;2024-02-04T02:17:06;3.90;;;2.23;;
40116;SDS011;25829;50.228;18.936;2024-02-04T02:20:25;3.93;;;2.73;;
40116;SDS011;25829;50.228;18.936;2024-02-04T02:27:13;3.23;;;2.83;;
40116;SDS011;25829;50.228;18.936;2024-02-04T02:30:14;2.87;;;2.37;;
40116;SDS011;25829;50.228;18.936;2024-02-04T02:33:16;1.90;;;1.80;;
40116;SDS011;25829;50.228;18.936;2024-02-04T02:36:21;2.13;;;1.77;;
40116;SDS011;25829;50.228;18.936;2024-02-04T02:39:34;2.00;;;1.50;;
40116;SDS011;25829;50.228;18.936;2024-02-04T02:42:43;2.03;;;1.50;;
40116;SDS011;25829;50.228;18.936;2024-02-04T02:45:46;1.43;;;1.33;;
40116;SDS011;25829;50.228;18.936;2024-02-04T02:48:49;1.60;;;1.50;;
40116;SDS011;25829;50.228;18.936;2024-02-04T02:51:50;2.37;;;1.13;;
40116;SDS011;25829;50.228;18.936;2024-02-04T02:54:51;2.47;;;1.40;;
40116;SDS011;25829;50.228;18.936;2024-02-04T02:57:51;1.33;;;1.23;;
40116;SDS011;25829;50.228;18.936;2024-02-04T03:00:52;1.50;;;1.37;;
40116;SDS011;25829;50.228;18.936;2024-02-04T03:03:53;1.37;;;1.27;;
40116;SDS011;25829;50.228;18.936;2024-02-04T03:06:54;1.50;;;1.40;;
40116;SDS011;25829;50.228;18.936;2024-02-04T03:09:55;1.60;;;1.50;;
40116;SDS011;25829;50.228;18.936;2024-02-04T03:12:55;3.63;;;1.97;;
40116;SDS011;25829;50.228;18.936;2024-02-04T03:15:56;1.90;;;1.80;;
40116;SDS011;25829;50.228;18.936;2024-02-04T03:18:57;4.23;;;1.90;;
40116;SDS011;25829;50.228;18.936;2024-02-04T03:21:58;2.17;;;1.50;;
40116;SDS011;25829;50.228;18.936;2024-02-04T03:24:59;2.87;;;1.40;;
40116;SDS011;25829;50.228;18.936;2024-02-04T03:27:59;2.90;;;1.70;;
40116;SDS011;25829;50.228;18.936;2024-02-04T03:31:00;1.60;;;1.40;;
40116;SDS011;25829;50.228;18.936;2024-02-04T03:34:02;2.23;;;1.63;;
40116;SDS011;25829;50.228;18.936;2024-02-04T03:37:03;1.73;;;1.50;;
40116;SDS011;25829;50.228;18.936;2024-02-04T03:40:04;3.10;;;1.70;;
40116;SDS011;25829;50.228;18.936;2024-02-04T03:43:05;4.83;;;2.17;;
40116;SDS011;25829;50.228;18.936;2024-02-04T03:46:06;4.67;;;2.20;;
40116;SDS011;25829;50.228;18.936;2024-02-04T03:49:07;2.93;;;2.40;;
40116;SDS011;25829;50.228;18.936;2024-02-04T03:52:08;4.90;;;3.10;;
40116;SDS011;25829;50.228;18.936;2024-02-04T03:55:09;2.37;;;1.83;;
40116;SDS011;25829;50.228;18.936;2024-02-04T03:58:10;2.90;;;1.90;;
40116;SDS011;25829;50.228;18.936;2024-02-04T04:01:11;2.40;;;2.10;;
40116;SDS011;25829;50.228;18.936;2024-02-04T04:04:12;2.47;;;2.20;;
40116;SDS011;25829;50.228;18.936;2024-02-04T04:07:13;2.70;;;1.87;;
40116;SDS011;25829;50.228;18.936;2024-02-04T04:10:14;1.90;;;1.70;;
40116;SDS011;25829;50.228;18.936;2024-02-04T04:13:15;2.27;;;1.73;;
40116;SDS011;25829;50.228;18.936;2024-02-04T04:16:16;2.37;;;2.17;;
40116;SDS011;25829;50.228;18.936;2024-02-04T04:19:20;3.47;;;2.43;;
40116;SDS011;25829;50.228;18.936;2024-02-04T04:22:21;2.40;;;2.10;;
40116;SDS011;25829;50.228;18.936;2024-02-04T04:25:22;2.20;;;2.00;;
40116;SDS011;25829;50.228;18.936;2024-02-04T04:28:23;2.90;;;2.60;;
40116;SDS011;25829;50.228;18.936;2024-02-04T04:31:24;2.77;;;2.30;;
40116;SDS011;25829;50.228;18.936;2024-02-04T04:34:25;2.60;;;2.20;;
40116;SDS011;25829;50.228;18.936;2024-02-04T04:37:25;2.57;;;1.90;;
40116;SDS011;25829;50.228;18.936;2024-02-04T04:40:26;2.27;;;2.07;;
40116;SDS011;25829;50.228;18.936;2024-02-04T04:43:27;2.30;;;2.00;;
40116;SDS011;25829;50.228;18.936;2024-02-04T04:46:28;2.23;;;2.03;;
40116;SDS011;25829;50.228;18.936;2024-02-04T04:49:28;2.17;;;2.00;;
40116;SDS011;25829;50.228;18.936;2024-02-04T04:52:29;2.07;;;1.87;;
40116;SDS011;25829;50.228;18.936;2024-02-04T04:55:30;1.97;;;1.67;;
40116;SDS011;25829;50.228;18.936;2024-02-04T04:58:31;2.03;;;1.70;;
40116;SDS011;25829;50.228;18.936;2024-02-04T05:01:31;1.70;;;1.60;;
40116;SDS011;25829;50.228;18.936;2024-02-04T05:04:32;2.40;;;1.90;;
40116;SDS011;25829;50.228;18.936;2024-02-04T05:07:33;3.40;;;2.10;;
40116;SDS011;25829;50.228;18.936;2024-02-04T05:10:33;1.80;;;1.70;;
40116;SDS011;25829;50.228;18.936;2024-02-04T05:13:34;1.67;;;1.57;;
40116;SDS011;25829;50.228;18.936;2024-02-04T05:16:35;1.63;;;1.50;;
40116;SDS011;25829;50.228;18.936;2024-02-04T05:19:36;1.97;;;1.50;;
40116;SDS011;25829;50.228;18.936;2024-02-04T05:22:37;1.77;;;1.67;;
40116;SDS011;25829;50.228;18.936;2024-02-04T05:25:37;1.80;;;1.70;;
40116;SDS011;25829;50.228;18.936;2024-02-04T05:28:38;2.27;;;2.07;;
40116;SDS011;25829;50.228;18.936;2024-02-04T05:31:42;2.87;;;2.00;;
40116;SDS011;25829;50.228;18.936;2024-02-04T05:34:43;2.77;;;2.40;;
40116;SDS011;25829;50.228;18.936;2024-02-04T05:37:44;2.10;;;1.90;;
40116;SDS011;25829;50.228;18.936;2024-02-04T05:40:45;1.70;;;1.60;;
40116;SDS011;25829;50.228;18.936;2024-02-04T05:43:46;3.73;;;1.80;;
40116;SDS011;25829;50.228;18.936;2024-02-04T05:46:46;3.13;;;1.80;;
40116;SDS011;25829;50.228;18.936;2024-02-04T05:49:47;2.60;;;1.73;;
40116;SDS011;25829;50.228;18.936;2024-02-04T05:52:48;2.20;;;1.80;;
40116;SDS011;25829;50.228;18.936;2024-02-04T05:55:49;1.67;;;1.50;;
40116;SDS011;25829;50.228;18.936;2024-02-04T05:58:50;1.60;;;1.50;;
40116;SDS011;25829;50.228;18.936;2024-02-04T06:01:51;1.43;;;1.33;;
40116;SDS011;25829;50.228;18.936;2024-02-04T06:04:52;2.00;;;1.43;;
40116;SDS011;25829;50.228;18.936;2024-02-04T06:07:52;1.97;;;1.43;;
40116;SDS011;25829;50.228;18.936;2024-02-04T06:10:53;2.67;;;1.40;;
40116;SDS011;25829;50.228;18.936;2024-02-04T06:13:54;1.83;;;1.47;;
40116;SDS011;25829;50.228;18.936;2024-02-04T06:16:54;1.67;;;1.57;;
40116;SDS011;25829;50.228;18.936;2024-02-04T06:19:55;1.93;;;1.70;;
40116;SDS011;25829;50.228;18.936;2024-02-04T06:22:57;1.40;;;1.30;;
40116;SDS011;25829;50.228;18.936;2024-02-04T06:25:58;2.37;;;1.60;;
40116;SDS011;25829;50.228;18.936;2024-02-04T06:28:59;3.87;;;1.70;;
40116;SDS011;25829;50.228;18.936;2024-02-04T06:31:59;2.17;;;1.50;;
40116;SDS011;25829;50.228;18.936;2024-02-04T06:35:00;1.53;;;1.43;;
40116;SDS011;25829;50.228;18.936;2024-02-04T06:38:01;1.87;;;1.40;;
40116;SDS011;25829;50.228;18.936;2024-02-04T06:41:02;3.10;;;1.50;;
40116;SDS011;25829;50.228;18.936;2024-02-04T06:44:03;2.57;;;1.57;;
40116;SDS011;25829;50.228;18.936;2024-02-04T06:47:04;2.83;;;1.43;;
40116;SDS011;25829;50.228;18.936;2024-02-04T06:50:06;3.17;;;1.67;;
40116;SDS011;25829;50.228;18.936;2024-02-04T06:53:07;3.13;;;1.60;;
40116;SDS011;25829;50.228;18.936;2024-02-04T06:56:08;1.60;;;1.50;;
40116;SDS011;25829;50.228;18.936;2024-02-04T06:59:09;2.03;;;1.60;;
40116;SDS011;25829;50.228;18.936;2024-02-04T07:02:09;2.93;;;1.77;;
40116;SDS011;25829;50.228;18.936;2024-02-04T07:05:10;2.93;;;1.60;;
40116;SDS011;25829;50.228;18.936;2024-02-04T07:08:11;4.67;;;1.63;;
40116;SDS011;25829;50.228;18.936;2024-02-04T07:11:11;4.03;;;1.97;;
40116;SDS011;25829;50.228;18.936;2024-02-04T07:14:12;4.73;;;2.00;;
40116;SDS011;25829;50.228;18.936;2024-02-04T07:17:13;3.83;;;2.13;;
40116;SDS011;25829;50.228;18.936;2024-02-04T07:20:14;4.90;;;2.10;;
40116;SDS011;25829;50.228;18.936;2024-02-04T07:23:15;2.23;;;1.60;;
40116;SDS011;25829;50.228;18.936;2024-02-04T07:26:15;8.17;;;1.93;;
40116;SDS011;25829;50.228;18.936;2024-02-04T07:29:16;3.13;;;1.70;;
40116;SDS011;25829;50.228;18.936;2024-02-04T07:32:17;2.97;;;1.50;;
40116;SDS011;25829;50.228;18.936;2024-02-04T07:35:17;3.47;;;1.60;;
40116;SDS011;25829;50.228;18.936;2024-02-04T07:38:18;2.20;;;1.50;;
40116;SDS011;25829;50.228;18.936;2024-02-04T07:41:19;3.40;;;1.77;;
40116;SDS011;25829;50.228;18.936;2024-02-04T07:44:20;4.60;;;1.70;;
40116;SDS011;25829;50.228;18.936;2024-02-04T07:47:20;2.70;;;1.60;;
40116;SDS011;25829;50.228;18.936;2024-02-04T07:50:21;6.67;;;1.87;;
40116;SDS011;25829;50.228;18.936;2024-02-04T07:53:22;2.97;;;1.70;;
40116;SDS011;25829;50.228;18.936;2024-02-04T07:56:23;2.70;;;1.70;;
40116;SDS011;25829;50.228;18.936;2024-02-04T07:59:24;3.80;;;1.87;;
40116;SDS011;25829;50.228;18.936;2024-02-04T08:02:25;3.70;;;2.13;;
40116;SDS011;25829;50.228;18.936;2024-02-04T08:05:25;4.30;;;1.97;;
40116;SDS011;25829;50.228;18.936;2024-02-04T08:08:26;3.70;;;2.63;;
40116;SDS011;25829;50.228;18.936;2024-02-04T08:11:27;4.30;;;2.23;;
40116;SDS011;25829;50.228;18.936;2024-02-04T08:14:27;3.53;;;2.10;;
40116;SDS011;25829;50.228;18.936;2024-02-04T08:17:28;4.53;;;2.20;;
40116;SDS011;25829;50.228;18.936;2024-02-04T08:20:31;3.40;;;2.20;;
40116;SDS011;25829;50.228;18.936;2024-02-04T08:23:32;4.43;;;2.10;;
40116;SDS011;25829;50.228;18.936;2024-02-04T08:26:33;6.07;;;2.30;;
40116;SDS011;25829;50.228;18.936;2024-02-04T08:29:33;4.33;;;2.13;;
40116;SDS011;25829;50.228;18.936;2024-02-04T08:32:34;3.73;;;2.50;;
40116;SDS011;25829;50.228;18.936;2024-02-04T08:35:35;5.40;;;2.20;;
40116;SDS011;25829;50.228;18.936;2024-02-04T08:38:36;3.20;;;1.70;;
40116;SDS011;25829;50.228;18.936;2024-02-04T08:41:37;2.57;;;1.87;;
40116;SDS011;25829;50.228;18.936;2024-02-04T08:44:38;4.93;;;2.30;;
40116;SDS011;25829;50.228;18.936;2024-02-04T08:47:38;5.80;;;2.37;;
40116;SDS011;25829;50.228;18.936;2024-02-04T08:50:39;5.10;;;2.17;;
40116;SDS011;25829;50.228;18.936;2024-02-04T08:53:40;4.63;;;2.30;;
40116;SDS011;25829;50.228;18.936;2024-02-04T08:56:41;5.33;;;2.83;;
40116;SDS011;25829;50.228;18.936;2024-02-04T08:59:41;3.23;;;2.20;;
40116;SDS011;25829;50.228;18.936;2024-02-04T09:02:42;4.57;;;2.60;;
40116;SDS011;25829;50.228;18.936;2024-02-04T09:05:43;6.17;;;2.97;;
40116;SDS011;25829;50.228;18.936;2024-02-04T09:08:44;9.87;;;3.23;;
40116;SDS011;25829;50.228;18.936;2024-02-04T09:11:44;5.83;;;3.20;;
40116;SDS011;25829;50.228;18.936;2024-02-04T09:14:45;8.27;;;3.00;;
40116;SDS011;25829;50.228;18.936;2024-02-04T09:17:46;4.10;;;2.60;;
40116;SDS011;25829;50.228;18.936;2024-02-04T09:20:46;6.37;;;2.97;;
40116;SDS011;25829;50.228;18.936;2024-02-04T09:23:48;6.70;;;2.67;;
40116;SDS011;25829;50.228;18.936;2024-02-04T09:26:48;4.73;;;2.80;;
40116;SDS011;25829;50.228;18.936;2024-02-04T09:29:49;7.77;;;3.40;;
40116;SDS011;25829;50.228;18.936;2024-02-04T09:32:50;6.13;;;3.07;;
40116;SDS011;25829;50.228;18.936;2024-02-04T09:35:51;5.77;;;2.90;;
40116;SDS011;25829;50.228;18.936;2024-02-04T09:38:51;6.80;;;3.13;;
40116;SDS011;25829;50.228;18.936;2024-02-04T09:41:53;4.13;;;2.40;;
40116;SDS011;25829;50.228;18.936;2024-02-04T09:44:54;6.10;;;3.20;;
40116;SDS011;25829;50.228;18.936;2024-02-04T09:47:55;5.97;;;3.43;;
40116;SDS011;25829;50.228;18.936;2024-02-04T09:50:56;5.30;;;3.20;;
40116;SDS011;25829;50.228;18.936;2024-02-04T09:53:58;5.90;;;2.97;;
40116;SDS011;25829;50.228;18.936;2024-02-04T09:57:06;4.60;;;2.93;;
40116;SDS011;25829;50.228;18.936;2024-02-04T10:00:07;5.37;;;2.90;;
40116;SDS011;25829;50.228;18.936;2024-02-04T10:03:13;4.47;;;2.90;;
40116;SDS011;25829;50.228;18.936;2024-02-04T10:06:14;4.27;;;2.60;;
40116;SDS011;25829;50.228;18.936;2024-02-04T10:09:15;4.37;;;2.73;;
40116;SDS011;25829;50.228;18.936;2024-02-04T10:12:16;4.93;;;2.50;;
40116;SDS011;25829;50.228;18.936;2024-02-04T10:15:17;4.17;;;2.60;;
40116;SDS011;25829;50.228;18.936;2024-02-04T10:18:18;5.50;;;2.70;;
40116;SDS011;25829;50.228;18.936;2024-02-04T10:21:19;4.63;;;2.67;;
40116;SDS011;25829;50.228;18.936;2024-02-04T10:24:21;4.23;;;2.53;;
40116;SDS011;25829;50.228;18.936;2024-02-04T10:27:22;4.97;;;2.70;;
40116;SDS011;25829;50.228;18.936;2024-02-04T10:30:22;4.87;;;2.67;;
40116;SDS011;25829;50.228;18.936;2024-02-04T10:33:23;3.67;;;2.60;;
40116;SDS011;25829;50.228;18.936;2024-02-04T10:36:24;4.73;;;2.67;;
40116;SDS011;25829;50.228;18.936;2024-02-04T10:39:25;4.27;;;2.77;;
40116;SDS011;25829;50.228;18.936;2024-02-04T10:42:26;5.23;;;2.77;;
40116;SDS011;25829;50.228;18.936;2024-02-04T10:45:28;4.87;;;3.07;;
40116;SDS011;25829;50.228;18.936;2024-02-04T10:48:33;5.47;;;3.03;;
40116;SDS011;25829;50.228;18.936;2024-02-04T10:51:42;4.23;;;3.50;;
40116;SDS011;25829;50.228;18.936;2024-02-04T10:54:44;4.23;;;3.33;;
40116;SDS011;25829;50.228;18.936;2024-02-04T10:57:44;5.77;;;2.80;;
40116;SDS011;25829;50.228;18.936;2024-02-04T11:00:47;4.93;;;2.40;;
40116;SDS011;25829;50.228;18.936;2024-02-04T11:03:48;4.83;;;3.00;;
40116;SDS011;25829;50.228;18.936;2024-02-04T11:06:52;8.23;;;3.10;;
40116;SDS011;25829;50.228;18.936;2024-02-04T11:09:54;4.57;;;2.73;;
40116;SDS011;25829;50.228;18.936;2024-02-04T11:12:57;4.80;;;3.33;;
40116;SDS011;25829;50.228;18.936;2024-02-04T11:16:00;4.10;;;2.70;;
40116;SDS011;25829;50.228;18.936;2024-02-04T11:26:06;6.40;;;3.67;;
40116;SDS011;25829;50.228;18.936;2024-02-04T11:29:07;5.57;;;3.57;;
40116;SDS011;25829;50.228;18.936;2024-02-04T11:32:09;4.80;;;3.60;;
40116;SDS011;25829;50.228;18.936;2024-02-04T11:35:12;5.87;;;3.50;;
40116;SDS011;25829;50.228;18.936;2024-02-04T11:38:17;4.67;;;3.93;;
40116;SDS011;25829;50.228;18.936;2024-02-04T11:41:21;5.27;;;3.50;;
40116;SDS011;25829;50.228;18.936;2024-02-04T11:44:27;4.77;;;3.10;;
40116;SDS011;25829;50.228;18.936;2024-02-04T11:47:28;9.37;;;4.10;;
40116;SDS011;25829;50.228;18.936;2024-02-04T11:50:29;5.13;;;3.37;;
40116;SDS011;25829;50.228;18.936;2024-02-04T11:53:31;4.53;;;3.43;;
40116;SDS011;25829;50.228;18.936;2024-02-04T11:56:34;6.07;;;3.87;;
40116;SDS011;25829;50.228;18.936;2024-02-04T11:59:36;4.27;;;3.87;;
40116;SDS011;25829;50.228;18.936;2024-02-04T12:02:37;5.63;;;4.17;;
40116;SDS011;25829;50.228;18.936;2024-02-04T12:05:38;4.77;;;3.90;;
40116;SDS011;25829;50.228;18.936;2024-02-04T12:08:39;5.20;;;4.07;;
40116;SDS011;25829;50.228;18.936;2024-02-04T12:11:40;5.07;;;3.70;;
40116;SDS011;25829;50.228;18.936;2024-02-04T12:14:41;8.10;;;4.60;;
40116;SDS011;25829;50.228;18.936;2024-02-04T12:17:43;5.43;;;4.57;;
40116;SDS011;25829;50.228;18.936;2024-02-04T12:20:44;20.07;;;10.83;;
40116;SDS011;25829;50.228;18.936;2024-02-04T12:23:45;15.40;;;9.73;;
40116;SDS011;25829;50.228;18.936;2024-02-04T12:26:46;25.00;;;13.00;;
40116;SDS011;25829;50.228;18.936;2024-02-04T12:29:50;20.87;;;11.20;;
40116;SDS011;25829;50.228;18.936;2024-02-04T12:32:56;14.70;;;9.60;;
40116;SDS011;25829;50.228;18.936;2024-02-04T12:35:58;13.00;;;8.23;;
40116;SDS011;25829;50.228;18.936;2024-02-04T12:39:01;13.03;;;8.07;;
40116;SDS011;25829;50.228;18.936;2024-02-04T12:42:03;13.10;;;8.77;;
40116;SDS011;25829;50.228;18.936;2024-02-04T12:45:05;11.67;;;8.13;;
40116;SDS011;25829;50.228;18.936;2024-02-04T12:48:06;11.80;;;7.40;;
40116;SDS011;25829;50.228;18.936;2024-02-04T12:51:08;11.40;;;8.03;;
40116;SDS011;25829;50.228;18.936;2024-02-04T12:54:11;13.30;;;8.60;;
40116;SDS011;25829;50.228;18.936;2024-02-04T12:57:22;13.03;;;9.13;;
40116;SDS011;25829;50.228;18.936;2024-02-04T13:00:24;11.77;;;7.93;;
40116;SDS011;25829;50.228;18.936;2024-02-04T13:03:25;10.60;;;7.37;;
40116;SDS011;25829;50.228;18.936;2024-02-04T13:06:26;8.50;;;6.50;;
40116;SDS011;25829;50.228;18.936;2024-02-04T13:09:26;8.40;;;5.87;;
40116;SDS011;25829;50.228;18.936;2024-02-04T13:12:27;9.70;;;6.23;;
40116;SDS011;25829;50.228;18.936;2024-02-04T13:15:32;10.73;;;6.90;;
40116;SDS011;25829;50.228;18.936;2024-02-04T13:18:34;9.53;;;6.70;;
40116;SDS011;25829;50.228;18.936;2024-02-04T13:21:35;10.93;;;5.73;;
40116;SDS011;25829;50.228;18.936;2024-02-04T13:24:36;7.87;;;5.77;;
40116;SDS011;25829;50.228;18.936;2024-02-04T13:27:37;11.03;;;6.30;;
40116;SDS011;25829;50.228;18.936;2024-02-04T13:30:38;14.53;;;7.50;;
40116;SDS011;25829;50.228;18.936;2024-02-04T13:33:39;12.23;;;7.40;;
40116;SDS011;25829;50.228;18.936;2024-02-04T13:36:40;15.73;;;8.80;;
40116;SDS011;25829;50.228;18.936;2024-02-04T13:39:41;15.63;;;8.03;;
40116;SDS011;25829;50.228;18.936;2024-02-04T13:42:42;16.43;;;8.80;;
40116;SDS011;25829;50.228;18.936;2024-02-04T13:45:43;9.80;;;6.27;;
40116;SDS011;25829;50.228;18.936;2024-02-04T13:48:44;7.67;;;5.30;;
40116;SDS011;25829;50.228;18.936;2024-02-04T13:51:44;9.23;;;5.17;;
40116;SDS011;25829;50.228;18.936;2024-02-04T13:54:45;6.30;;;4.20;;
40116;SDS011;25829;50.228;18.936;2024-02-04T13:57:46;6.80;;;4.90;;
40116;SDS011;25829;50.228;18.936;2024-02-04T14:00:47;7.43;;;4.43;;
40116;SDS011;25829;50.228;18.936;2024-02-04T14:03:48;6.57;;;4.50;;
40116;SDS011;25829;50.228;18.936;2024-02-04T14:06:50;7.43;;;4.73;;
40116;SDS011;25829;50.228;18.936;2024-02-04T14:09:50;7.67;;;4.40;;
40116;SDS011;25829;50.228;18.936;2024-02-04T14:12:51;6.17;;;4.40;;
40116;SDS011;25829;50.228;18.936;2024-02-04T14:15:52;5.83;;;4.00;;
40116;SDS011;25829;50.228;18.936;2024-02-04T14:18:52;6.53;;;3.93;;
40116;SDS011;25829;50.228;18.936;2024-02-04T14:21:53;6.73;;;4.17;;
40116;SDS011;25829;50.228;18.936;2024-02-04T14:24:54;5.13;;;3.43;;
40116;SDS011;25829;50.228;18.936;2024-02-04T14:27:55;5.80;;;3.63;;
40116;SDS011;25829;50.228;18.936;2024-02-04T14:30:55;5.17;;;3.30;;
40116;SDS011;25829;50.228;18.936;2024-02-04T14:33:56;5.73;;;3.90;;
40116;SDS011;25829;50.228;18.936;2024-02-04T14:36:57;6.80;;;3.80;;
40116;SDS011;25829;50.228;18.936;2024-02-04T14:39:57;4.77;;;3.53;;
40116;SDS011;25829;50.228;18.936;2024-02-04T14:43:00;5.63;;;3.30;;
40116;SDS011;25829;50.228;18.936;2024-02-04T14:46:02;3.97;;;2.77;;
40116;SDS011;25829;50.228;18.936;2024-02-04T14:49:03;4.00;;;2.90;;
40116;SDS011;25829;50.228;18.936;2024-02-04T14:52:04;5.60;;;3.47;;
40116;SDS011;25829;50.228;18.936;2024-02-04T14:55:05;4.17;;;3.03;;
40116;SDS011;25829;50.228;18.936;2024-02-04T14:58:06;8.23;;;5.40;;
40116;SDS011;25829;50.228;18.936;2024-02-04T15:01:07;7.13;;;5.23;;
40116;SDS011;25829;50.228;18.936;2024-02-04T15:04:09;5.87;;;3.93;;
40116;SDS011;25829;50.228;18.936;2024-02-04T15:07:11;6.87;;;4.23;;
40116;SDS011;25829;50.228;18.936;2024-02-04T15:10:12;10.17;;;5.50;;
40116;SDS011;25829;50.228;18.936;2024-02-04T15:13:13;7.07;;;4.50;;
40116;SDS011;25829;50.228;18.936;2024-02-04T15:16:14;9.83;;;6.20;;
40116;SDS011;25829;50.228;18.936;2024-02-04T15:19:15;5.73;;;4.37;;
40116;SDS011;25829;50.228;18.936;2024-02-04T15:22:16;7.80;;;4.43;;
40116;SDS011;25829;50.228;18.936;2024-02-04T15:25:17;6.80;;;4.90;;
40116;SDS011;25829;50.228;18.936;2024-02-04T15:28:20;8.67;;;4.97;;
40116;SDS011;25829;50.228;18.936;2024-02-04T15:31:23;6.50;;;4.60;;
40116;SDS011;25829;50.228;18.936;2024-02-04T15:34:24;7.47;;;5.33;;
40116;SDS011;25829;50.228;18.936;2024-02-04T15:37:25;4.93;;;3.70;;
40116;SDS011;25829;50.228;18.936;2024-02-04T15:40:26;4.97;;;3.80;;
40116;SDS011;25829;50.228;18.936;2024-02-04T15:43:27;5.33;;;4.23;;
40116;SDS011;25829;50.228;18.936;2024-02-04T15:46:28;6.57;;;4.17;;
40116;SDS011;25829;50.228;18.936;2024-02-04T15:49:31;4.80;;;3.83;;
40116;SDS011;25829;50.228;18.936;2024-02-04T15:52:31;3.93;;;3.50;;
40116;SDS011;25829;50.228;18.936;2024-02-04T15:55:33;5.47;;;3.50;;
40116;SDS011;25829;50.228;18.936;2024-02-04T15:58:37;6.90;;;4.17;;
40116;SDS011;25829;50.228;18.936;2024-02-04T16:01:39;5.10;;;3.93;;
40116;SDS011;25829;50.228;18.936;2024-02-04T16:04:43;5.37;;;3.43;;
40116;SDS011;25829;50.228;18.936;2024-02-04T16:07:46;3.50;;;3.10;;
40116;SDS011;25829;50.228;18.936;2024-02-04T16:10:47;3.50;;;2.93;;
40116;SDS011;25829;50.228;18.936;2024-02-04T16:13:48;7.60;;;4.10;;
40116;SDS011;25829;50.228;18.936;2024-02-04T16:16:54;4.87;;;3.70;;
40116;SDS011;25829;50.228;18.936;2024-02-04T16:20:02;6.47;;;4.13;;
40116;SDS011;25829;50.228;18.936;2024-02-04T16:23:05;5.73;;;3.60;;
40116;SDS011;25829;50.228;18.936;2024-02-04T16:26:07;4.67;;;3.20;;
40116;SDS011;25829;50.228;18.936;2024-02-04T16:29:08;3.73;;;2.80;;
40116;SDS011;25829;50.228;18.936;2024-02-04T16:32:09;4.57;;;3.10;;
40116;SDS011;25829;50.228;18.936;2024-02-04T16:35:14;4.03;;;3.53;;
40116;SDS011;25829;50.228;18.936;2024-02-04T16:38:15;6.10;;;3.43;;
40116;SDS011;25829;50.228;18.936;2024-02-04T16:41:15;7.90;;;5.20;;
40116;SDS011;25829;50.228;18.936;2024-02-04T16:44:17;3.50;;;3.20;;
40116;SDS011;25829;50.228;18.936;2024-02-04T16:47:27;3.60;;;3.27;;
40116;SDS011;25829;50.228;18.936;2024-02-04T16:50:31;4.50;;;3.90;;
40116;SDS011;25829;50.228;18.936;2024-02-04T16:54:41;5.97;;;4.00;;
40116;SDS011;25829;50.228;18.936;2024-02-04T16:57:44;4.80;;;4.23;;
40116;SDS011;25829;50.228;18.936;2024-02-04T17:00:44;5.17;;;4.30;;
40116;SDS011;25829;50.228;18.936;2024-02-04T17:03:45;4.40;;;4.00;;
40116;SDS011;25829;50.228;18.936;2024-02-04T17:06:47;4.80;;;3.87;;
40116;SDS011;25829;50.228;18.936;2024-02-04T17:09:51;6.07;;;4.00;;
40116;SDS011;25829;50.228;18.936;2024-02-04T17:12:53;6.23;;;5.10;;
40116;SDS011;25829;50.228;18.936;2024-02-04T17:15:54;6.47;;;4.37;;
40116;SDS011;25829;50.228;18.936;2024-02-04T17:22:12;8.40;;;5.27;;
40116;SDS011;25829;50.228;18.936;2024-02-04T17:25:15;7.27;;;5.17;;
40116;SDS011;25829;50.228;18.936;2024-02-04T17:28:19;5.50;;;4.13;;
40116;SDS011;25829;50.228;18.936;2024-02-04T17:31:21;5.97;;;4.20;;
40116;SDS011;25829;50.228;18.936;2024-02-04T17:34:22;8.73;;;5.07;;
40116;SDS011;25829;50.228;18.936;2024-02-04T17:37:23;4.83;;;4.20;;
40116;SDS011;25829;50.228;18.936;2024-02-04T17:40:24;7.63;;;3.80;;
40116;SDS011;25829;50.228;18.936;2024-02-04T17:43:25;5.40;;;3.93;;
40116;SDS011;25829;50.228;18.936;2024-02-04T17:46:29;4.40;;;3.87;;
40116;SDS011;25829;50.228;18.936;2024-02-04T17:49:30;6.47;;;3.83;;
40116;SDS011;25829;50.228;18.936;2024-02-04T17:52:30;6.87;;;3.70;;
40116;SDS011;25829;50.228;18.936;2024-02-04T17:55:31;7.70;;;3.83;;
40116;SDS011;25829;50.228;18.936;2024-02-04T17:58:35;5.00;;;3.20;;
40116;SDS011;25829;50.228;18.936;2024-02-04T18:01:35;5.23;;;3.53;;
40116;SDS011;25829;50.228;18.936;2024-02-04T18:04:36;5.80;;;3.57;;
40116;SDS011;25829;50.228;18.936;2024-02-04T18:07:37;4.47;;;3.70;;
40116;SDS011;25829;50.228;18.936;2024-02-04T18:10:41;5.03;;;3.70;;